• Join FlightAware (Why Join?)
  • Login
  • US Flag 
06:18PM EDT


 

Airport Tracker/Info


-or-


 

Live Flight TrackerFlight Track Log ✈ PDT4458 ✈ 28-Apr-2013 ✈ KPHL - KLGA

Flight Track Log - Related Links

Times and Time Zones

All times are in EDT time to prevent confusion due to time zone crossing. See the PDT4458 flight status page for this flight to view local times or setup timezone preferences in your user account.

Time Position Orientation Groundspeed Altitude Reporting Facility
EDT Latitude Longitude Course Direction KTS MPH feet Rate Location/Type
04:14PM 39.8833 -75.2000 37° Northeast 127 146 600  Level Philadelphia TRACON
04:14PM 39.8833 -75.1833 90° East 127 146 1,500 1,620 Climbing Philadelphia TRACON
04:15PM 39.9000 -75.1333 67° East 137 158 3,100 1,320 Climbing Philadelphia TRACON
04:16PM 39.8500 -75.0303 90° East  Level FlightAware Approximate
04:16PM 39.9000 -75.0833 90° East 169 194 4,200  Level Philadelphia TRACON
04:17PM 39.8591 -74.9652 57° Northeast  Level FlightAware Approximate
04:17PM 39.9333 -75.0167 57° Northeast 190 219 5,400  Level Philadelphia TRACON
04:18PM 39.8930 -74.9140 57° Northeast  Level FlightAware Approximate
04:19PM 39.9316 -74.8684 37° Northeast  Level FlightAware Approximate
04:19PM 39.9833 -74.8833 64° Northeast 213 245 7,300  Level New York TRACON
04:20PM 40.0000 -74.8333 66° East 212 244 8,000 300 Climbing New York TRACON
04:21PM 40.0333 -74.7500 62° Northeast 235 270 8,000  Level New York TRACON
04:22PM 40.0833 -74.6833 46° Northeast 241 277 8,000  Level New York TRACON
04:23PM 40.1167 -74.6167 57° Northeast 240 276 8,000  Level New York TRACON
04:24PM 40.1667 -74.5500 46° Northeast 242 278 8,000  Level New York TRACON
04:25PM 40.2167 -74.5000 37° Northeast 239 275 8,000  Level New York TRACON
04:26PM 40.2667 -74.4333 45° Northeast 239 275 8,000  Level New York TRACON
04:27PM 40.3167 -74.3833 37° Northeast 237 273 8,000  Level New York TRACON
04:28PM 40.3667 -74.3333 37° Northeast 239 275 8,000  Level New York TRACON
04:29PM 40.4167 -74.2667 45° Northeast 238 274 8,000 -60 Level New York TRACON
04:30PM 40.4667 -74.2167 37° Northeast 235 270 7,900 -540 Descending New York TRACON
04:31PM 40.5167 -74.1667 37° Northeast 259 298 7,000 -960 Descending New York TRACON
04:32PM 40.5667 -74.1000 45° Northeast 259 298 6,000 -1,020 Descending New York TRACON
04:33PM 40.6333 -74.0667 21° North 225 259 5,000 -960 Descending New York TRACON
04:34PM 40.7000 -74.0333 21° North 217 250 4,000 -480 Descending New York TRACON
04:35PM 40.7500 -74.0167 14° North 215 247 4,000  Level New York TRACON
04:36PM 40.8000 -73.9833 27° Northeast 217 250 4,000 -240 Level New York TRACON
04:37PM 40.8667 -73.9500 21° North 218 251 3,600 -720 Descending New York TRACON
04:38PM 40.9167 -73.9167 27° Northeast 212 244 2,600 -600 Descending New York TRACON
04:39PM 40.9667 -73.8833 27° Northeast 215 247 2,500 -180 Descending New York TRACON
04:40PM 40.9667 -73.8167 90° East 202 232 2,300 -300 Descending New York TRACON
04:41PM 40.9500 -73.7667 114° Southeast 180 207 2,000 -300 Descending New York TRACON